Aeroporto :
LOGIN :

Iscrizione | Disclaimer

   EN    FR    IT 

 










Sommario :    VFR   VFR Marginale   IFR   IFR Intensivo   IFR Molto Intensivo
Visibilità : 
Base nubi : 
>= 8 km
>= 3000ft
5 / 8 km
1000 / 3000 ft
1500m / 5 km
500 / 1000 ft
800 / 1500m
200 / 500 ft
< 800m
< 200 ft
Simboli :   Temporali  Nebbia  Neve Forte  Precipitazioni Forti  Vento > 20 kt
SIGMETs :   Varie  Temporali  Ghiacco  Turbolenza  Onda orograficha  Ceneri Vulcaniche






- Altitudine del aeroporto : 84 ft


LFBC - Cazaux

ULTIMO METAR :
  • 210030Z AUTO VRB02KT 9999 FEW016 OVC034 10/09 Q1031

METARs OBSOLETI :
  • 210000Z AUTO 36006KT 9999 FEW007 SCT018 OVC027 10/09 Q1031
  • 202330Z AUTO 35009KT 6000 -DZ BKN008 BKN017 OVC023 10/10 Q1031
  • 202300Z AUTO 33007KT 300V010 6000 -DZ BKN010 OVC017 11/10 Q1030
  • 202230Z AUTO 24007KT 9999 BKN018 OVC023 12/10 Q1030
  • 202200Z AUTO 24005KT 9999 OVC021 11/10 Q1030

TAF TAF LFBC
Valido dal 20 a 21 ore il 21 a 21 ore UTC


202000Z 2021/2121 27003KT 9999 FEW018 BKN030 BKN045
PROB30
TEMPO 2103/2108 0800 BCFG



MetMap, La meteo Aeronautica in un colpo d'occhio ! - Copyright ORBIFLY Dicembre 2007 - Disclaimer

ORBIFLY MET'MAP TEAM :

Programmazione e sviluppo : Alexandra Zaïnal
Concezione : Baudouin d'Aumeries
Aiuto per la programmazione : Marc-Olivier Méhu
Supporto tecnico e logistico : Manuel Goepfert
Aiuto per la traduzione : Arnaldo La Scala

Contatto : metmap@orbifly.com




FONTI E CREDITI :

   NOAA